Time;durP1;ratioP1;P1;durP2;ratioP2;P2;SDS_P1;SDS_P2;PMS_P1;PMS_P2;Temp;Humidity;BMP_temperature;BMP_pressure;BME280_temperature;BME280_humidity;BME280_pressure;Samples;Min_cycle;Max_cycle;Signal;HPM_P1;HPM_P2
2021/12/31 00:04:12;;;;;;;5.80;2.50;;;22.80;61.40;;;;;;211146;1320;25629;-57
2021/12/31 00:09:23;;;;;;;6.40;3.00;;;22.80;61.20;;;;;;210868;1321;22590;-56
2021/12/31 00:14:26;;;;;;;6.00;2.20;;;22.70;61.00;;;;;;211030;1320;25462;-56
2021/12/31 00:19:33;;;;;;;4.30;2.30;;;22.70;61.00;;;;;;211104;1321;22661;-57
2021/12/31 00:24:37;;;;;;;6.30;1.90;;;22.70;60.90;;;;;;211080;1310;24195;-57
2021/12/31 00:29:41;;;;;;;7.60;2.40;;;22.60;60.70;;;;;;211148;1320;22590;-57
2021/12/31 00:34:46;;;;;;;5.30;2.10;;;22.60;60.70;;;;;;210945;1303;26131;-58
2021/12/31 00:39:54;;;;;;;5.00;2.10;;;22.60;60.50;;;;;;211045;1317;22584;-57
2021/12/31 00:44:58;;;;;;;7.20;2.30;;;22.60;60.60;;;;;;211038;1317;22611;-58
2021/12/31 00:50:07;;;;;;;5.40;2.20;;;22.60;60.60;;;;;;211143;1320;23739;-57
2021/12/31 00:55:14;;;;;;;4.30;2.10;;;22.50;60.60;;;;;;211071;1320;25352;-52
2021/12/31 01:00:19;;;;;;;5.20;2.00;;;22.50;60.80;;;;;;211099;1320;24301;-60
2021/12/31 01:05:22;;;;;;;5.70;2.20;;;22.50;60.40;;;;;;211214;1320;25457;-57
2021/12/31 01:10:28;;;;;;;3.50;2.30;;;22.40;60.30;;;;;;211136;1320;22698;-56
2021/12/31 01:15:39;;;;;;;5.10;1.90;;;22.40;60.30;;;;;;211138;1320;24289;-57
2021/12/31 01:20:42;;;;;;;2.90;1.90;;;22.40;60.00;;;;;;211135;1321;23021;-56
2021/12/31 01:25:46;;;;;;;4.20;2.00;;;22.50;60.10;;;;;;211145;1320;24217;-58
2021/12/31 01:30:52;;;;;;;3.50;1.70;;;22.40;60.00;;;;;;211077;1321;22682;-57
2021/12/31 01:35:56;;;;;;;4.50;2.10;;;22.30;60.00;;;;;;211160;1320;24424;-58
2021/12/31 01:41:00;;;;;;;3.00;1.60;;;22.30;60.00;;;;;;210968;1320;24217;-58
2021/12/31 01:46:11;;;;;;;3.10;1.50;;;22.30;59.90;;;;;;211019;1321;22590;-56
2021/12/31 01:51:15;;;;;;;5.00;1.90;;;22.30;59.90;;;;;;210821;1321;22641;-56
2021/12/31 01:56:27;;;;;;;4.10;1.70;;;22.30;59.90;;;;;;210897;1321;25357;-56
2021/12/31 02:01:32;;;;;;;3.20;1.50;;;22.30;60.30;;;;;;210779;1321;22643;-56
2021/12/31 02:06:35;;;;;;;3.30;1.70;;;22.40;60.50;;;;;;210802;1321;22803;-59
2021/12/31 02:11:40;;;;;;;3.50;1.90;;;22.70;59.20;;;;;;211082;1321;24312;-56
2021/12/31 02:16:44;;;;;;;3.00;1.60;;;23.00;58.70;;;;;;211158;1320;24331;-55
2021/12/31 02:21:47;;;;;;;4.20;1.90;;;23.10;58.20;;;;;;211021;1317;23050;-54
2021/12/31 02:26:52;;;;;;;3.30;1.70;;;23.20;57.90;;;;;;210912;1321;22707;-57
2021/12/31 02:31:55;;;;;;;4.30;1.70;;;23.30;57.70;;;;;;211266;1321;22633;-56
2021/12/31 02:36:59;;;;;;;4.10;1.80;;;23.30;57.60;;;;;;211112;1321;22604;-58
2021/12/31 02:42:03;;;;;;;3.80;1.70;;;23.30;57.50;;;;;;211089;1320;24247;-55
2021/12/31 02:47:07;;;;;;;4.00;1.60;;;23.30;57.50;;;;;;211224;1321;24217;-57
2021/12/31 02:52:16;;;;;;;3.10;1.80;;;23.40;57.30;;;;;;211213;1321;22603;-56
2021/12/31 02:57:20;;;;;;;3.10;1.60;;;23.30;57.30;;;;;;211162;1321;25453;-57
2021/12/31 03:02:25;;;;;;;3.60;1.80;;;23.40;57.30;;;;;;211189;1320;24228;-59
2021/12/31 03:07:30;;;;;;;3.00;1.50;;;23.40;57.30;;;;;;211156;1321;25432;-57
2021/12/31 03:12:33;;;;;;;4.10;1.80;;;23.40;57.10;;;;;;210807;1321;24249;-57
2021/12/31 03:17:40;;;;;;;3.50;1.70;;;23.40;57.00;;;;;;211078;1317;24295;-55
2021/12/31 03:22:43;;;;;;;3.50;1.50;;;23.40;56.90;;;;;;211084;1321;25493;-58
2021/12/31 03:27:47;;;;;;;3.30;1.90;;;23.40;56.90;;;;;;211044;1321;24220;-57
2021/12/31 03:32:50;;;;;;;3.00;1.40;;;23.40;56.70;;;;;;211321;1313;24289;-57
2021/12/31 03:37:55;;;;;;;3.20;1.50;;;23.40;56.70;;;;;;211230;1319;24289;-56
2021/12/31 03:42:59;;;;;;;3.40;1.50;;;23.40;56.70;;;;;;211302;1319;22586;-56
2021/12/31 03:48:04;;;;;;;2.10;1.30;;;23.50;56.60;;;;;;211481;1319;22692;-56
2021/12/31 03:53:08;;;;;;;3.20;1.50;;;23.50;56.40;;;;;;211127;1319;22717;-59
2021/12/31 03:58:11;;;;;;;2.70;1.20;;;23.50;56.70;;;;;;211246;1319;24255;-57
2021/12/31 04:03:16;;;;;;;2.20;1.40;;;23.50;56.20;;;;;;211285;1319;22591;-58
2021/12/31 04:08:20;;;;;;;2.70;1.30;;;23.50;56.20;;;;;;211293;1319;26681;-58
2021/12/31 04:13:24;;;;;;;2.40;1.30;;;23.50;56.70;;;;;;211241;1319;24309;-57
2021/12/31 04:18:27;;;;;;;3.10;1.50;;;23.60;56.70;;;;;;211250;1319;24198;-58
2021/12/31 04:23:35;;;;;;;1.90;1.10;;;23.60;56.20;;;;;;211408;1319;25580;-57
2021/12/31 04:28:40;;;;;;;2.30;1.30;;;23.50;55.50;;;;;;211329;1319;22916;-58
2021/12/31 04:33:44;;;;;;;2.30;1.30;;;23.60;56.30;;;;;;211052;1316;25387;-57
2021/12/31 04:38:49;;;;;;;2.90;1.30;;;23.60;56.10;;;;;;211127;1319;22596;-55
2021/12/31 04:43:53;;;;;;;3.30;1.30;;;23.60;55.90;;;;;;211387;1319;22603;-58
2021/12/31 04:48:57;;;;;;;3.60;1.60;;;23.60;55.60;;;;;;211311;1319;24313;-57
2021/12/31 04:54:01;;;;;;;2.10;1.10;;;23.60;55.80;;;;;;211073;1317;25480;-58
2021/12/31 04:59:04;;;;;;;2.00;1.30;;;23.60;55.60;;;;;;211142;1318;22638;-57
2021/12/31 05:04:08;;;;;;;3.50;1.70;;;23.60;55.60;;;;;;211164;1319;24292;-56
2021/12/31 05:09:11;;;;;;;5.30;1.40;;;23.70;55.90;;;;;;211091;1319;22606;-57
2021/12/31 05:14:15;;;;;;;4.10;1.20;;;23.70;55.80;;;;;;211167;1319;22633;-55
2021/12/31 05:19:19;;;;;;;5.70;1.40;;;23.80;55.80;;;;;;211066;1320;24218;-57
2021/12/31 05:24:22;;;;;;;5.40;1.20;;;23.80;55.80;;;;;;210905;1320;22639;-57
2021/12/31 05:29:26;;;;;;;3.10;1.20;;;23.70;55.70;;;;;;211918;1315;22615;-62
2021/12/31 05:34:29;;;;;;;4.00;1.20;;;23.70;55.60;;;;;;210927;1317;23050;-57
2021/12/31 05:39:33;;;;;;;4.60;2.20;;;23.70;55.40;;;;;;211093;1320;24257;-54
2021/12/31 05:44:36;;;;;;;2.50;1.20;;;23.70;55.40;;;;;;211228;1319;24293;-57
2021/12/31 05:49:40;;;;;;;2.40;1.10;;;23.70;55.40;;;;;;211217;1319;26707;-59
2021/12/31 05:54:44;;;;;;;4.40;1.50;;;23.70;55.60;;;;;;211298;1319;22587;-56
2021/12/31 05:59:47;;;;;;;3.80;1.40;;;23.70;55.20;;;;;;211125;1319;24885;-60
2021/12/31 06:04:50;;;;;;;1.70;0.90;;;23.70;55.30;;;;;;211284;1320;22587;-56
2021/12/31 06:10:00;;;;;;;3.10;1.50;;;23.70;55.20;;;;;;211292;1319;22597;-55
2021/12/31 06:15:09;;;;;;;2.10;1.10;;;23.70;55.00;;;;;;211361;1319;25451;-58
2021/12/31 06:20:12;;;;;;;2.50;1.40;;;23.70;55.40;;;;;;211266;1318;22753;-58
2021/12/31 06:25:16;;;;;;;2.80;1.20;;;23.70;54.90;;;;;;211204;1319;22587;-56
2021/12/31 06:30:22;;;;;;;2.60;1.30;;;23.70;54.80;;;;;;210785;1319;24457;-58
2021/12/31 06:35:25;;;;;;;1.90;1.10;;;23.70;54.90;;;;;;211207;1319;26727;-57
2021/12/31 06:40:38;;;;;;;2.20;1.10;;;23.70;54.60;;;;;;211334;1319;22623;-57
2021/12/31 06:46:25;;;;;;;2.50;1.20;;;23.70;54.90;;;;;;211277;1319;23041;-55
2021/12/31 06:51:29;;;;;;;1.50;0.90;;;23.70;54.80;;;;;;211289;1319;22603;-59
2021/12/31 06:56:35;;;;;;;2.30;1.10;;;23.80;54.70;;;;;;211044;1320;26787;-54
2021/12/31 07:01:38;;;;;;;2.60;1.10;;;23.70;54.70;;;;;;212533;1314;25377;-56
2021/12/31 07:06:43;;;;;;;2.10;1.30;;;23.70;55.00;;;;;;211756;1315;22589;-55
2021/12/31 07:11:48;;;;;;;3.30;1.40;;;23.70;54.70;;;;;;212368;1314;22604;-57
2021/12/31 07:16:51;;;;;;;4.10;1.30;;;23.70;54.80;;;;;;212470;1314;24274;-56
2021/12/31 07:21:55;;;;;;;2.90;1.30;;;23.70;54.50;;;;;;212391;1314;23024;-59
2021/12/31 07:26:58;;;;;;;5.10;1.00;;;23.70;54.70;;;;;;212329;1314;22679;-59
2021/12/31 07:32:03;;;;;;;3.10;1.20;;;23.70;55.00;;;;;;212531;1313;25451;-57
2021/12/31 07:37:06;;;;;;;3.40;1.10;;;23.70;54.90;;;;;;211946;1315;24286;-57
2021/12/31 07:42:11;;;;;;;2.60;1.10;;;23.70;54.60;;;;;;211667;1315;24251;-55
2021/12/31 07:47:19;;;;;;;5.00;1.20;;;23.70;54.50;;;;;;211937;1314;22587;-56
2021/12/31 07:52:23;;;;;;;3.90;1.10;;;23.80;54.50;;;;;;212397;1314;22697;-56
2021/12/31 07:57:32;;;;;;;3.40;1.10;;;23.80;54.40;;;;;;212113;1311;22756;-55
2021/12/31 08:02:50;;;;;;;9.20;2.20;;;23.80;54.80;;;;;;212063;1314;22644;-55
2021/12/31 08:08:04;;;;;;;5.90;1.60;;;23.80;55.10;;;;;;212033;1313;24106;-57
2021/12/31 08:13:22;;;;;;;6.50;1.70;;;23.80;56.10;;;;;;211920;1315;25609;-56
2021/12/31 08:18:29;;;;;;;4.70;1.60;;;23.80;56.40;;;;;;212588;1314;22586;-52
2021/12/31 08:23:34;;;;;;;5.00;1.50;;;23.70;56.70;;;;;;212402;1314;22576;-58
2021/12/31 08:28:40;;;;;;;5.20;1.80;;;23.60;56.50;;;;;;212377;1315;25500;-55
2021/12/31 08:33:44;;;;;;;7.90;1.60;;;23.50;56.60;;;;;;211786;1314;25061;-55
2021/12/31 08:38:48;;;;;;;9.20;1.30;;;23.40;57.10;;;;;;212339;1314;22597;-54
2021/12/31 08:43:51;;;;;;;9.30;1.50;;;23.30;57.60;;;;;;212171;1314;22668;-60
2021/12/31 08:49:01;;;;;;;4.00;1.50;;;23.30;57.70;;;;;;211912;1313;24218;-62
2021/12/31 08:54:05;;;;;;;6.30;1.40;;;23.30;57.80;;;;;;212630;1314;22575;-59
2021/12/31 08:59:14;;;;;;;4.50;1.30;;;23.30;58.20;;;;;;212750;1311;24474;-59
2021/12/31 09:04:19;;;;;;;4.00;1.10;;;23.20;58.10;;;;;;212582;1313;22754;-52
2021/12/31 09:09:23;;;;;;;12.20;1.50;;;23.20;58.50;;;;;;212256;1311;22676;-53
2021/12/31 09:14:27;;;;;;;8.10;1.30;;;23.20;57.90;;;;;;212605;1313;24355;-58
2021/12/31 09:19:34;;;;;;;5.40;1.70;;;23.20;57.90;;;;;;212731;1313;22699;-56
2021/12/31 09:24:48;;;;;;;6.60;1.30;;;23.10;57.80;;;;;;212604;1313;22586;-55
2021/12/31 09:29:57;;;;;;;8.70;1.60;;;23.10;57.80;;;;;;212321;1310;22581;-57
2021/12/31 09:35:10;;;;;;;8.50;1.40;;;23.10;57.70;;;;;;217092;1306;22724;-57
2021/12/31 09:40:18;;;;;;;6.80;1.60;;;23.00;57.50;;;;;;211833;1309;22679;-55
2021/12/31 09:46:07;;;;;;;;;;;;;;;;;;;;;
2021/12/31 09:51:26;;;;;;;3.60;2.30;;;23.10;57.00;;;;;;212202;1311;22604;-55
2021/12/31 09:56:52;;;;;;;2.90;1.30;;;23.00;57.30;;;;;;212111;1312;22722;-52
2021/12/31 10:02:00;;;;;;;3.20;1.30;;;23.00;57.00;;;;;;212092;1312;22717;-54
2021/12/31 10:07:13;;;;;;;3.20;1.10;;;22.90;56.90;;;;;;212308;1310;22558;-51
2021/12/31 10:12:22;;;;;;;5.70;1.20;;;22.90;56.80;;;;;;212062;1311;24382;-52
2021/12/31 10:17:49;;;;;;;5.10;1.30;;;22.90;56.80;;;;;;214505;1312;24328;-52
2021/12/31 10:23:17;;;;;;;5.80;1.50;;;22.90;56.70;;;;;;217447;1315;22296;-52
2021/12/31 10:28:24;;;;;;;8.10;1.60;;;22.90;56.80;;;;;;213029;1313;25294;-54
2021/12/31 10:33:42;;;;;;;5.90;1.90;;;22.90;56.50;;;;;;211887;1310;24300;-56
2021/12/31 10:38:46;;;;;;;6.70;1.70;;;22.90;56.80;;;;;;214597;1312;22607;-57
2021/12/31 10:43:59;;;;;;;31.70;7.60;;;22.90;56.90;;;;;;211910;1314;25446;-57
2021/12/31 10:49:24;;;;;;;26.10;6.10;;;22.90;56.90;;;;;;212176;1313;22612;-56
2021/12/31 10:55:02;;;;;;;19.20;5.80;;;22.90;57.00;;;;;;211746;1308;23860;-58
2021/12/31 11:00:19;;;;;;;18.00;5.40;;;22.90;57.50;;;;;;212204;1311;22577;-57
2021/12/31 11:05:34;;;;;;;21.20;6.00;;;22.90;57.50;;;;;;212286;1311;22708;-56
2021/12/31 11:11:06;;;;;;;14.30;5.10;;;22.90;57.70;;;;;;212716;1312;22593;-58
2021/12/31 11:16:18;;;;;;;16.60;3.70;;;22.90;57.60;;;;;;212284;1311;25570;-56
2021/12/31 11:21:28;;;;;;;17.50;4.70;;;22.90;57.80;;;;;;212253;1305;24092;-57
2021/12/31 11:26:41;;;;;;;14.90;3.90;;;22.90;58.30;;;;;;212004;1311;25641;-55
2021/12/31 11:31:46;;;;;;;16.90;5.00;;;22.90;58.50;;;;;;212183;1312;22577;-56
2021/12/31 11:36:55;;;;;;;16.60;4.90;;;22.90;58.80;;;;;;211990;1311;25279;-54
2021/12/31 11:42:06;;;;;;;14.90;4.10;;;22.90;58.70;;;;;;212444;1312;22700;-56
2021/12/31 11:47:15;;;;;;;;;;;22.90;58.30;;;;;;212462;1312;25171;-54
2021/12/31 11:52:23;;;;;;;11.60;4.00;;;22.90;58.10;;;;;;212417;1311;23466;-56
2021/12/31 11:57:29;;;;;;;9.20;3.60;;;22.80;57.90;;;;;;212323;1311;22583;-57
2021/12/31 12:02:40;;;;;;;11.20;3.90;;;22.80;58.10;;;;;;212517;1311;22609;-53
2021/12/31 12:07:49;;;;;;;12.30;3.50;;;22.90;58.30;;;;;;212523;1305;24290;-54
2021/12/31 12:13:17;;;;;;;9.80;3.50;;;22.90;58.30;;;;;;212193;1312;22583;-56
2021/12/31 12:18:52;;;;;;;10.40;3.60;;;22.80;58.40;;;;;;212344;1311;22589;-53
2021/12/31 12:23:58;;;;;;;10.90;3.60;;;22.80;58.30;;;;;;212726;1303;24283;-55
2021/12/31 12:29:04;;;;;;;7.80;3.10;;;22.90;58.10;;;;;;212430;1303;22587;-58
2021/12/31 12:34:08;;;;;;;5.80;2.80;;;22.90;58.10;;;;;;212587;1308;22790;-56
2021/12/31 12:39:12;;;;;;;8.90;3.20;;;22.90;58.10;;;;;;212039;1313;23904;-56
2021/12/31 12:44:16;;;;;;;8.40;3.30;;;22.90;58.00;;;;;;212421;1313;23021;-59
2021/12/31 12:49:21;;;;;;;7.70;3.00;;;22.90;57.90;;;;;;212285;1311;25496;-55
2021/12/31 12:54:25;;;;;;;6.80;3.10;;;22.90;58.70;;;;;;212321;1311;25378;-52
2021/12/31 12:59:30;;;;;;;9.80;3.10;;;22.90;58.80;;;;;;212622;1311;22614;-55
2021/12/31 13:04:33;;;;;;;11.40;3.20;;;22.90;59.20;;;;;;212462;1311;22646;-58
2021/12/31 13:09:37;;;;;;;12.00;3.00;;;22.90;59.20;;;;;;212513;1311;24283;-58
2021/12/31 13:14:43;;;;;;;8.30;2.80;;;23.00;58.80;;;;;;212075;1312;22578;-57
2021/12/31 13:19:47;;;;;;;6.70;2.60;;;22.90;59.60;;;;;;212338;1312;23619;-56
2021/12/31 13:24:54;;;;;;;7.90;2.80;;;23.00;59.40;;;;;;212551;1313;22700;-58
2021/12/31 13:30:06;;;;;;;7.70;3.10;;;23.10;58.70;;;;;;212101;1312;22694;-55
2021/12/31 13:35:15;;;;;;;6.10;2.90;;;23.10;58.50;;;;;;212095;1311;25608;-54
2021/12/31 13:40:20;;;;;;;10.10;2.50;;;23.10;58.10;;;;;;211965;1311;22589;-53
2021/12/31 13:45:25;;;;;;;9.90;2.60;;;23.00;57.80;;;;;;212256;1308;22739;-50
2021/12/31 13:50:31;;;;;;;12.70;2.60;;;23.00;57.90;;;;;;212253;1311;22582;-55
2021/12/31 13:55:49;;;;;;;9.90;2.90;;;23.00;58.10;;;;;;212169;1311;22634;-55
2021/12/31 14:00:52;;;;;;;11.40;3.00;;;23.00;58.20;;;;;;212602;1311;24138;-55
2021/12/31 14:05:58;;;;;;;11.60;2.50;;;22.90;57.80;;;;;;211884;1311;25339;-53
2021/12/31 14:11:07;;;;;;;11.50;2.80;;;23.00;58.70;;;;;;211885;1310;26585;-53
2021/12/31 14:16:12;;;;;;;6.30;2.70;;;22.90;58.20;;;;;;212016;1311;25685;-55
2021/12/31 14:21:19;;;;;;;14.90;2.30;;;22.90;58.20;;;;;;212174;1310;22539;-53
2021/12/31 14:26:23;;;;;;;9.40;2.60;;;22.80;58.00;;;;;;212191;1312;22642;-53
2021/12/31 14:31:30;;;;;;;8.70;2.20;;;22.80;58.00;;;;;;212158;1311;22594;-53
2021/12/31 14:37:05;;;;;;;7.60;2.50;;;22.90;57.50;;;;;;212629;1313;22579;-53
2021/12/31 14:42:13;;;;;;;8.50;2.10;;;23.20;57.10;;;;;;212273;1313;22595;-57
2021/12/31 14:47:18;;;;;;;11.60;2.50;;;23.10;57.20;;;;;;212164;1312;23260;-54
2021/12/31 14:52:26;;;;;;;11.10;2.10;;;23.10;57.50;;;;;;212260;1313;22982;-53
2021/12/31 14:57:30;;;;;;;7.00;1.80;;;23.00;57.40;;;;;;212436;1311;25380;-52
2021/12/31 15:02:36;;;;;;;5.70;1.80;;;23.00;57.90;;;;;;212324;1311;24309;-56
2021/12/31 15:07:47;;;;;;;8.10;1.70;;;22.90;58.00;;;;;;212214;1306;22600;-53
2021/12/31 15:12:54;;;;;;;4.30;1.60;;;23.00;57.50;;;;;;212504;1314;22675;-51
2021/12/31 15:17:58;;;;;;;5.10;1.40;;;22.90;57.80;;;;;;212402;1300;22601;-54
2021/12/31 15:23:01;;;;;;;5.60;1.60;;;23.00;57.90;;;;;;212359;1311;25614;-51
2021/12/31 15:28:07;;;;;;;5.60;1.70;;;23.10;57.60;;;;;;212294;1311;24279;-51
2021/12/31 15:33:14;;;;;;;3.50;1.30;;;23.10;57.30;;;;;;212062;1311;22575;-53
2021/12/31 15:38:21;;;;;;;2.50;1.20;;;23.20;57.30;;;;;;212521;1312;25459;-52
2021/12/31 15:43:25;;;;;;;3.40;1.00;;;23.20;57.50;;;;;;212335;1312;22583;-50
2021/12/31 15:48:37;;;;;;;4.20;1.10;;;23.10;58.20;;;;;;211979;1314;25508;-52
2021/12/31 15:53:50;;;;;;;3.20;1.70;;;23.10;58.20;;;;;;212501;1311;24215;-54
2021/12/31 15:59:00;;;;;;;3.00;1.20;;;23.00;58.10;;;;;;212106;1311;23314;-51
2021/12/31 16:04:07;;;;;;;3.90;1.40;;;23.10;57.30;;;;;;212638;1313;22790;-55
2021/12/31 16:09:13;;;;;;;5.90;1.70;;;23.10;57.20;;;;;;212326;1314;22714;-51
2021/12/31 16:14:17;;;;;;;4.50;1.70;;;23.00;57.30;;;;;;212559;1310;22590;-55
2021/12/31 16:19:26;;;;;;;2.90;1.20;;;23.10;57.40;;;;;;212006;1313;24219;-55
2021/12/31 16:24:34;;;;;;;4.80;1.40;;;23.00;57.20;;;;;;212234;1311;25341;-54
2021/12/31 16:29:51;;;;;;;3.60;1.60;;;23.00;58.10;;;;;;211382;1305;24301;-55
2021/12/31 16:35:04;;;;;;;2.70;1.20;;;23.00;57.70;;;;;;214610;1315;25537;-54
2021/12/31 16:40:11;;;;;;;3.50;1.40;;;23.00;57.40;;;;;;212141;1310;24290;-55
2021/12/31 16:45:18;;;;;;;4.90;1.60;;;22.90;57.10;;;;;;212466;1312;23209;-56
2021/12/31 16:50:22;;;;;;;6.10;1.60;;;22.90;57.10;;;;;;212474;1312;25346;-56
2021/12/31 16:55:26;;;;;;;5.50;1.70;;;23.00;56.90;;;;;;212180;1312;25378;-58
2021/12/31 17:00:30;;;;;;;3.20;1.40;;;23.00;56.00;;;;;;212460;1312;22586;-59
2021/12/31 17:05:34;;;;;;;5.20;1.60;;;23.10;56.40;;;;;;212167;1311;24263;-60
2021/12/31 17:10:38;;;;;;;3.90;1.50;;;23.00;56.60;;;;;;212390;1308;26584;-58
2021/12/31 17:16:12;;;;;;;5.50;1.90;;;22.90;56.30;;;;;;211987;1311;22617;-60
2021/12/31 17:21:19;;;;;;;6.20;1.50;;;22.90;56.70;;;;;;212191;1311;22600;-58
2021/12/31 17:26:27;;;;;;;4.10;1.50;;;22.90;56.50;;;;;;212247;1312;24335;-60
2021/12/31 17:31:30;;;;;;;5.60;1.70;;;22.90;56.60;;;;;;211850;1311;24181;-59
2021/12/31 17:36:34;;;;;;;3.40;1.90;;;22.90;56.40;;;;;;212308;1312;22664;-61
2021/12/31 17:42:53;;;;;;;6.00;2.00;;;22.80;56.10;;;;;;215006;1297;543028;-61
2021/12/31 17:48:03;;;;;;;7.30;1.80;;;22.80;56.40;;;;;;218658;1280;25277;-60
2021/12/31 17:53:07;;;;;;;7.40;2.20;;;22.80;56.60;;;;;;216524;1278;2634337;-58
2021/12/31 17:58:12;;;;;;;11.50;1.90;;;22.90;57.20;;;;;;218623;1277;23015;-61
2021/12/31 18:03:19;;;;;;;6.60;2.30;;;22.90;57.80;;;;;;218570;1277;22567;-63
2021/12/31 18:08:26;;;;;;;10.70;2.80;;;22.90;57.60;;;;;;218719;1278;22580;-57
2021/12/31 18:13:32;;;;;;;8.00;2.50;;;22.90;58.00;;;;;;219037;1278;22591;-57
2021/12/31 18:18:43;;;;;;;9.10;1.80;;;22.90;57.80;;;;;;218628;1277;24335;-53
2021/12/31 18:23:48;;;;;;;4.20;1.70;;;22.90;58.10;;;;;;218800;1277;22579;-55
2021/12/31 18:28:51;;;;;;;5.30;1.70;;;22.90;58.00;;;;;;218673;1277;25469;-57
2021/12/31 18:33:57;;;;;;;5.40;1.60;;;23.00;58.30;;;;;;218380;1277;22582;-59
2021/12/31 18:39:07;;;;;;;9.80;2.20;;;23.10;58.10;;;;;;218631;1278;24279;-59
2021/12/31 18:44:23;;;;;;;8.90;2.00;;;23.10;58.70;;;;;;218317;1281;25286;-58
2021/12/31 18:49:35;;;;;;;8.70;2.60;;;23.10;58.40;;;;;;218696;1278;22714;-60
2021/12/31 18:54:39;;;;;;;23.50;2.60;;;23.10;58.80;;;;;;218320;1278;22749;-58
2021/12/31 18:59:54;;;;;;;6.30;2.00;;;23.30;59.70;;;;;;218461;1278;22613;-58
2021/12/31 19:05:33;;;;;;;5.70;1.80;;;23.20;59.00;;;;;;218277;1277;25433;-58
2021/12/31 19:10:48;;;;;;;5.80;1.60;;;23.20;59.10;;;;;;218369;1277;25572;-58
2021/12/31 19:15:57;;;;;;;5.00;1.90;;;23.20;59.60;;;;;;218404;1280;22557;-58
2021/12/31 19:21:04;;;;;;;5.60;1.80;;;23.30;59.30;;;;;;218708;1277;22625;-56
2021/12/31 19:26:09;;;;;;;3.20;1.60;;;23.40;59.90;;;;;;218822;1277;25527;-56
2021/12/31 19:31:16;;;;;;;4.00;1.50;;;23.40;60.00;;;;;;218264;1280;22700;-58
2021/12/31 19:36:30;;;;;;;2.90;1.40;;;23.40;60.30;;;;;;218530;1277;22554;-56
2021/12/31 19:41:46;;;;;;;3.00;1.50;;;23.50;60.40;;;;;;218624;1277;22635;-59
2021/12/31 19:46:55;;;;;;;3.10;1.40;;;23.40;60.20;;;;;;218602;1280;22553;-56
2021/12/31 19:52:00;;;;;;;3.50;1.60;;;23.50;60.60;;;;;;218545;1277;22535;-57
2021/12/31 19:57:09;;;;;;;2.30;1.00;;;23.50;60.90;;;;;;218648;1277;24253;-57
2021/12/31 20:02:23;;;;;;;3.00;1.20;;;23.50;61.20;;;;;;218372;1277;24263;-57
2021/12/31 20:07:30;;;;;;;2.50;1.20;;;23.60;61.80;;;;;;218586;1277;22602;-58
2021/12/31 20:12:44;;;;;;;2.20;1.00;;;23.50;61.60;;;;;;218309;1277;24497;-58
2021/12/31 20:17:52;;;;;;;5.60;1.50;;;23.50;61.00;;;;;;218469;1277;25297;-57
2021/12/31 20:23:00;;;;;;;2.90;1.10;;;23.70;60.70;;;;;;218425;1277;25495;-57
2021/12/31 20:28:10;;;;;;;9.00;1.30;;;23.70;61.30;;;;;;218399;1277;22724;-56
2021/12/31 20:33:21;;;;;;;3.90;1.50;;;23.60;60.80;;;;;;218324;1280;25334;-57
2021/12/31 20:38:30;;;;;;;3.40;1.10;;;23.70;60.70;;;;;;218548;1277;22697;-56
2021/12/31 20:43:50;;;;;;;2.50;1.30;;;23.70;60.50;;;;;;218186;1277;25484;-58
2021/12/31 20:48:56;;;;;;;4.80;1.20;;;23.70;60.30;;;;;;218681;1278;22704;-58
2021/12/31 20:54:03;;;;;;;3.00;1.00;;;23.90;61.60;;;;;;219113;1276;25476;-57
2021/12/31 20:59:43;;;;;;;1.90;1.00;;;23.90;60.60;;;;;;218763;1277;25341;-59
2021/12/31 21:04:47;;;;;;;1.60;1.10;;;23.90;60.00;;;;;;219118;1277;24697;-58
2021/12/31 21:10:06;;;;;;;5.30;1.40;;;23.90;60.50;;;;;;218615;1277;22726;-55
2021/12/31 21:15:25;;;;;;;4.70;1.40;;;23.90;61.10;;;;;;218583;1277;22632;-57
2021/12/31 21:20:43;;;;;;;6.60;1.40;;;23.90;60.70;;;;;;218561;1277;25028;-57
2021/12/31 21:26:04;;;;;;;9.90;1.20;;;24.00;61.20;;;;;;220204;1268;22556;-62
2021/12/31 21:31:24;;;;;;;6.30;1.40;;;23.90;60.90;;;;;;219768;1268;22994;-62
2021/12/31 21:36:31;;;;;;;6.80;1.20;;;23.80;60.60;;;;;;220203;1268;24421;-63
2021/12/31 21:41:55;;;;;;;10.40;1.40;;;23.80;61.20;;;;;;219841;1268;24228;-63
2021/12/31 21:47:12;;;;;;;5.20;1.40;;;23.90;61.60;;;;;;219744;1268;24110;-63
2021/12/31 21:52:28;;;;;;;8.90;2.00;;;23.90;63.00;;;;;;219871;1268;22701;-65
2021/12/31 21:57:43;;;;;;;14.30;2.00;;;24.10;63.00;;;;;;220102;1268;26798;-64
2021/12/31 22:02:59;;;;;;;19.20;2.30;;;24.10;61.80;;;;;;220016;1268;22577;-65
2021/12/31 22:08:09;;;;;;;12.80;2.10;;;24.10;61.20;;;;;;220175;1268;24256;-65
2021/12/31 22:13:31;;;;;;;4.50;1.80;;;24.20;61.60;;;;;;220294;1268;22580;-63
2021/12/31 22:18:52;;;;;;;9.50;1.90;;;24.10;60.30;;;;;;219537;1267;24386;-65
2021/12/31 22:24:25;;;;;;;6.90;1.90;;;23.90;60.00;;;;;;220002;1268;27461;-66
2021/12/31 22:29:48;;;;;;;6.10;1.60;;;23.90;60.10;;;;;;219990;1268;22691;-66
2021/12/31 22:35:09;;;;;;;3.40;2.00;;;23.80;59.70;;;;;;220100;1268;25461;-65
2021/12/31 22:40:32;;;;;;;3.30;1.60;;;23.70;59.50;;;;;;219878;1268;24432;-66
2021/12/31 22:45:40;;;;;;;7.50;2.00;;;23.70;59.60;;;;;;219846;1268;22620;-67
2021/12/31 22:51:12;;;;;;;7.70;2.00;;;23.70;59.70;;;;;;219719;1267;24276;-65
2021/12/31 22:56:25;;;;;;;12.40;2.70;;;23.60;59.20;;;;;;220219;1268;22618;-66
2021/12/31 23:01:29;;;;;;;11.80;3.90;;;23.50;57.70;;;;;;220197;1268;25319;-68
2021/12/31 23:06:33;;;;;;;11.80;4.50;;;23.20;55.60;;;;;;219973;1268;22538;-66
2021/12/31 23:11:42;;;;;;;10.50;3.90;;;22.90;54.60;;;;;;219935;1268;25512;-66
2021/12/31 23:16:46;;;;;;;9.80;4.50;;;22.80;54.30;;;;;;219679;1268;24411;-66
2021/12/31 23:21:50;;;;;;;9.00;3.70;;;22.50;54.40;;;;;;220084;1267;22615;-64
2021/12/31 23:26:59;;;;;;;6.80;3.30;;;22.80;55.80;;;;;;219826;1271;25583;-63
2021/12/31 23:32:14;;;;;;;6.20;3.00;;;22.90;55.80;;;;;;219983;1268;24290;-63
2021/12/31 23:37:18;;;;;;;5.60;3.10;;;23.10;56.40;;;;;;220138;1271;24235;-62
2021/12/31 23:42:35;;;;;;;5.20;2.60;;;23.10;57.10;;;;;;220015;1268;23219;-63
2021/12/31 23:47:46;;;;;;;5.30;2.70;;;23.10;57.00;;;;;;219795;1271;25419;-63
2021/12/31 23:53:34;;;;;;;6.00;2.30;;;23.20;57.50;;;;;;220066;1267;24339;-63
2021/12/31 23:59:07;;;;;;;6.10;2.40;;;23.20;57.60;;;;;;219635;1268;22591;-63
